sensor_id;sensor_type;location;lat;lon;timestamp;P1;durP1;ratioP1;P2;durP2;ratioP2
15071;SDS011;7635;56.696;13.002;2022-12-07T00:00:33;2.30;;;2.10;;
15071;SDS011;7635;56.696;13.002;2022-12-07T00:03:01;1.87;;;1.73;;
15071;SDS011;7635;56.696;13.002;2022-12-07T00:05:29;3.33;;;2.13;;
15071;SDS011;7635;56.696;13.002;2022-12-07T00:07:55;2.23;;;2.00;;
15071;SDS011;7635;56.696;13.002;2022-12-07T00:10:22;3.03;;;2.33;;
15071;SDS011;7635;56.696;13.002;2022-12-07T00:12:49;3.40;;;2.28;;
15071;SDS011;7635;56.696;13.002;2022-12-07T00:15:16;2.93;;;1.83;;
15071;SDS011;7635;56.696;13.002;2022-12-07T00:17:42;2.00;;;1.80;;
15071;SDS011;7635;56.696;13.002;2022-12-07T00:20:11;2.60;;;2.03;;
15071;SDS011;7635;56.696;13.002;2022-12-07T00:22:37;2.50;;;2.30;;
15071;SDS011;7635;56.696;13.002;2022-12-07T00:25:04;2.60;;;2.20;;
15071;SDS011;7635;56.696;13.002;2022-12-07T00:27:31;2.30;;;2.10;;
15071;SDS011;7635;56.696;13.002;2022-12-07T00:29:58;3.30;;;2.17;;
15071;SDS011;7635;56.696;13.002;2022-12-07T00:32:24;2.10;;;1.90;;
15071;SDS011;7635;56.696;13.002;2022-12-07T00:34:51;3.33;;;2.03;;
15071;SDS011;7635;56.696;13.002;2022-12-07T00:37:19;3.27;;;1.97;;
15071;SDS011;7635;56.696;13.002;2022-12-07T00:39:46;2.20;;;2.00;;
15071;SDS011;7635;56.696;13.002;2022-12-07T00:42:12;2.70;;;1.90;;
15071;SDS011;7635;56.696;13.002;2022-12-07T00:44:39;3.13;;;1.70;;
15071;SDS011;7635;56.696;13.002;2022-12-07T00:47:06;3.13;;;1.97;;
15071;SDS011;7635;56.696;13.002;2022-12-07T00:49:32;2.30;;;1.70;;
15071;SDS011;7635;56.696;13.002;2022-12-07T00:51:59;1.93;;;1.83;;
15071;SDS011;7635;56.696;13.002;2022-12-07T00:54:27;3.10;;;1.83;;
15071;SDS011;7635;56.696;13.002;2022-12-07T00:56:54;2.40;;;1.93;;
15071;SDS011;7635;56.696;13.002;2022-12-07T00:59:20;2.67;;;2.23;;
15071;SDS011;7635;56.696;13.002;2022-12-07T01:01:47;2.43;;;1.87;;
15071;SDS011;7635;56.696;13.002;2022-12-07T01:04:14;2.23;;;2.03;;
15071;SDS011;7635;56.696;13.002;2022-12-07T01:06:40;2.57;;;2.07;;
15071;SDS011;7635;56.696;13.002;2022-12-07T01:09:07;1.80;;;1.70;;
15071;SDS011;7635;56.696;13.002;2022-12-07T01:11:35;2.17;;;1.80;;
15071;SDS011;7635;56.696;13.002;2022-12-07T01:14:05;2.97;;;2.17;;
15071;SDS011;7635;56.696;13.002;2022-12-07T01:16:32;2.30;;;2.10;;
15071;SDS011;7635;56.696;13.002;2022-12-07T01:18:59;3.10;;;2.10;;
15071;SDS011;7635;56.696;13.002;2022-12-07T01:21:27;2.17;;;1.97;;
15071;SDS011;7635;56.696;13.002;2022-12-07T01:23:57;2.67;;;1.83;;
15071;SDS011;7635;56.696;13.002;2022-12-07T01:26:24;3.20;;;2.20;;
15071;SDS011;7635;56.696;13.002;2022-12-07T01:28:53;2.00;;;1.80;;
15071;SDS011;7635;56.696;13.002;2022-12-07T01:31:21;3.37;;;1.97;;
15071;SDS011;7635;56.696;13.002;2022-12-07T01:33:50;3.10;;;2.20;;
15071;SDS011;7635;56.696;13.002;2022-12-07T01:36:19;2.07;;;1.87;;
15071;SDS011;7635;56.696;13.002;2022-12-07T01:38:47;2.40;;;2.20;;
15071;SDS011;7635;56.696;13.002;2022-12-07T01:41:17;1.77;;;1.67;;
15071;SDS011;7635;56.696;13.002;2022-12-07T01:46:36;2.17;;;1.90;;
15071;SDS011;7635;56.696;13.002;2022-12-07T01:49:03;2.47;;;1.83;;
15071;SDS011;7635;56.696;13.002;2022-12-07T01:51:32;3.20;;;1.90;;
15071;SDS011;7635;56.696;13.002;2022-12-07T01:54:00;2.87;;;2.20;;
15071;SDS011;7635;56.696;13.002;2022-12-07T01:56:27;2.40;;;1.97;;
15071;SDS011;7635;56.696;13.002;2022-12-07T01:58:55;2.17;;;1.90;;
15071;SDS011;7635;56.696;13.002;2022-12-07T02:01:26;2.67;;;2.20;;
15071;SDS011;7635;56.696;13.002;2022-12-07T02:03:52;2.07;;;1.97;;
15071;SDS011;7635;56.696;13.002;2022-12-07T02:06:20;2.10;;;1.90;;
15071;SDS011;7635;56.696;13.002;2022-12-07T02:08:50;2.93;;;2.20;;
15071;SDS011;7635;56.696;13.002;2022-12-07T02:11:18;2.77;;;2.10;;
15071;SDS011;7635;56.696;13.002;2022-12-07T02:13:45;2.53;;;2.03;;
15071;SDS011;7635;56.696;13.002;2022-12-07T02:16:15;2.77;;;2.20;;
15071;SDS011;7635;56.696;13.002;2022-12-07T02:18:55;1.83;;;1.73;;
15071;SDS011;7635;56.696;13.002;2022-12-07T02:21:34;2.80;;;2.00;;
15071;SDS011;7635;56.696;13.002;2022-12-07T02:24:13;1.70;;;1.60;;
15071;SDS011;7635;56.696;13.002;2022-12-07T02:27:04;2.40;;;1.87;;
15071;SDS011;7635;56.696;13.002;2022-12-07T02:29:54;2.90;;;2.40;;
15071;SDS011;7635;56.696;13.002;2022-12-07T02:32:27;2.47;;;2.00;;
15071;SDS011;7635;56.696;13.002;2022-12-07T02:35:01;1.83;;;1.73;;
15071;SDS011;7635;56.696;13.002;2022-12-07T02:37:34;2.10;;;1.90;;
15071;SDS011;7635;56.696;13.002;2022-12-07T02:40:06;2.73;;;2.10;;
15071;SDS011;7635;56.696;13.002;2022-12-07T02:42:38;2.07;;;1.80;;
15071;SDS011;7635;56.696;13.002;2022-12-07T02:45:10;2.17;;;1.90;;
15071;SDS011;7635;56.696;13.002;2022-12-07T02:47:40;2.10;;;1.90;;
15071;SDS011;7635;56.696;13.002;2022-12-07T02:50:07;2.50;;;1.83;;
15071;SDS011;7635;56.696;13.002;2022-12-07T02:52:35;2.50;;;2.03;;
15071;SDS011;7635;56.696;13.002;2022-12-07T02:55:01;3.57;;;1.90;;
15071;SDS011;7635;56.696;13.002;2022-12-07T02:57:34;2.40;;;2.10;;
15071;SDS011;7635;56.696;13.002;2022-12-07T03:00:14;2.47;;;1.73;;
15071;SDS011;7635;56.696;13.002;2022-12-07T03:02:46;2.67;;;1.97;;
15071;SDS011;7635;56.696;13.002;2022-12-07T03:08:13;1.60;;;1.50;;
15071;SDS011;7635;56.696;13.002;2022-12-07T03:10:45;1.87;;;1.70;;
15071;SDS011;7635;56.696;13.002;2022-12-07T03:13:22;1.50;;;1.40;;
15071;SDS011;7635;56.696;13.002;2022-12-07T03:15:53;3.17;;;1.83;;
15071;SDS011;7635;56.696;13.002;2022-12-07T03:18:25;1.50;;;1.40;;
15071;SDS011;7635;56.696;13.002;2022-12-07T03:20:57;1.70;;;1.60;;
15071;SDS011;7635;56.696;13.002;2022-12-07T03:23:29;1.87;;;1.53;;
15071;SDS011;7635;56.696;13.002;2022-12-07T03:25:58;1.50;;;1.40;;
15071;SDS011;7635;56.696;13.002;2022-12-07T03:28:28;1.50;;;1.40;;
15071;SDS011;7635;56.696;13.002;2022-12-07T03:31:00;2.57;;;1.90;;
15071;SDS011;7635;56.696;13.002;2022-12-07T03:33:32;1.53;;;1.43;;
15071;SDS011;7635;56.696;13.002;2022-12-07T03:36:04;1.53;;;1.43;;
15071;SDS011;7635;56.696;13.002;2022-12-07T03:38:35;2.53;;;1.60;;
15071;SDS011;7635;56.696;13.002;2022-12-07T03:41:06;1.97;;;1.70;;
15071;SDS011;7635;56.696;13.002;2022-12-07T03:43:38;1.83;;;1.70;;
15071;SDS011;7635;56.696;13.002;2022-12-07T03:46:09;1.77;;;1.63;;
15071;SDS011;7635;56.696;13.002;2022-12-07T03:48:45;1.93;;;1.67;;
15071;SDS011;7635;56.696;13.002;2022-12-07T03:51:18;2.47;;;1.70;;
15071;SDS011;7635;56.696;13.002;2022-12-07T03:53:51;2.73;;;1.53;;
15071;SDS011;7635;56.696;13.002;2022-12-07T03:56:23;2.30;;;1.80;;
15071;SDS011;7635;56.696;13.002;2022-12-07T03:58:51;1.80;;;1.50;;
15071;SDS011;7635;56.696;13.002;2022-12-07T04:01:22;1.63;;;1.53;;
15071;SDS011;7635;56.696;13.002;2022-12-07T04:03:49;2.00;;;1.80;;
15071;SDS011;7635;56.696;13.002;2022-12-07T04:06:16;1.73;;;1.60;;
15071;SDS011;7635;56.696;13.002;2022-12-07T04:08:42;1.80;;;1.70;;
15071;SDS011;7635;56.696;13.002;2022-12-07T04:11:09;2.10;;;1.90;;
15071;SDS011;7635;56.696;13.002;2022-12-07T04:13:36;4.67;;;2.40;;
15071;SDS011;7635;56.696;13.002;2022-12-07T04:16:16;2.07;;;1.77;;
15071;SDS011;7635;56.696;13.002;2022-12-07T04:18:44;2.70;;;2.10;;
15071;SDS011;7635;56.696;13.002;2022-12-07T04:21:11;2.73;;;2.00;;
15071;SDS011;7635;56.696;13.002;2022-12-07T04:23:38;2.63;;;2.30;;
15071;SDS011;7635;56.696;13.002;2022-12-07T04:26:05;2.13;;;1.93;;
15071;SDS011;7635;56.696;13.002;2022-12-07T04:28:31;1.83;;;1.73;;
15071;SDS011;7635;56.696;13.002;2022-12-07T04:30:58;2.53;;;2.17;;
15071;SDS011;7635;56.696;13.002;2022-12-07T04:33:24;2.47;;;1.80;;
15071;SDS011;7635;56.696;13.002;2022-12-07T04:35:53;2.40;;;2.10;;
15071;SDS011;7635;56.696;13.002;2022-12-07T04:38:19;2.30;;;2.00;;
15071;SDS011;7635;56.696;13.002;2022-12-07T04:40:46;3.80;;;2.23;;
15071;SDS011;7635;56.696;13.002;2022-12-07T04:43:13;1.93;;;1.83;;
15071;SDS011;7635;56.696;13.002;2022-12-07T04:45:39;2.30;;;2.10;;
15071;SDS011;7635;56.696;13.002;2022-12-07T04:48:10;3.13;;;2.23;;
15071;SDS011;7635;56.696;13.002;2022-12-07T04:50:37;2.80;;;2.37;;
15071;SDS011;7635;56.696;13.002;2022-12-07T04:53:05;3.17;;;2.23;;
15071;SDS011;7635;56.696;13.002;2022-12-07T04:55:32;2.10;;;1.90;;
15071;SDS011;7635;56.696;13.002;2022-12-07T04:57:59;2.57;;;1.93;;
15071;SDS011;7635;56.696;13.002;2022-12-07T05:00:25;2.47;;;2.23;;
15071;SDS011;7635;56.696;13.002;2022-12-07T05:02:52;2.87;;;2.30;;
15071;SDS011;7635;56.696;13.002;2022-12-07T05:05:18;2.40;;;1.97;;
15071;SDS011;7635;56.696;13.002;2022-12-07T05:07:45;2.17;;;1.97;;
15071;SDS011;7635;56.696;13.002;2022-12-07T05:10:13;3.50;;;2.40;;
15071;SDS011;7635;56.696;13.002;2022-12-07T05:12:40;2.33;;;2.13;;
15071;SDS011;7635;56.696;13.002;2022-12-07T05:15:07;2.53;;;2.03;;
15071;SDS011;7635;56.696;13.002;2022-12-07T05:17:34;3.10;;;2.07;;
15071;SDS011;7635;56.696;13.002;2022-12-07T05:20:01;2.20;;;2.00;;
15071;SDS011;7635;56.696;13.002;2022-12-07T05:22:28;2.43;;;2.17;;
15071;SDS011;7635;56.696;13.002;2022-12-07T05:24:54;2.27;;;2.00;;
15071;SDS011;7635;56.696;13.002;2022-12-07T05:27:23;2.97;;;2.10;;
15071;SDS011;7635;56.696;13.002;2022-12-07T05:29:50;2.97;;;2.40;;
15071;SDS011;7635;56.696;13.002;2022-12-07T05:32:16;2.50;;;2.00;;
15071;SDS011;7635;56.696;13.002;2022-12-07T05:34:43;2.37;;;2.10;;
15071;SDS011;7635;56.696;13.002;2022-12-07T05:37:10;2.47;;;1.87;;
15071;SDS011;7635;56.696;13.002;2022-12-07T05:39:36;2.70;;;1.87;;
15071;SDS011;7635;56.696;13.002;2022-12-07T05:42:05;2.50;;;2.30;;
15071;SDS011;7635;56.696;13.002;2022-12-07T05:44:39;2.50;;;2.30;;
15071;SDS011;7635;56.696;13.002;2022-12-07T05:47:07;2.10;;;1.90;;
15071;SDS011;7635;56.696;13.002;2022-12-07T05:49:33;3.27;;;2.40;;
15071;SDS011;7635;56.696;13.002;2022-12-07T05:52:00;2.73;;;2.13;;
15071;SDS011;7635;56.696;13.002;2022-12-07T05:54:27;2.77;;;2.10;;
15071;SDS011;7635;56.696;13.002;2022-12-07T05:56:54;3.00;;;2.33;;
15071;SDS011;7635;56.696;13.002;2022-12-07T05:59:21;2.53;;;2.30;;
15071;SDS011;7635;56.696;13.002;2022-12-07T06:01:51;2.40;;;2.10;;
15071;SDS011;7635;56.696;13.002;2022-12-07T06:04:20;2.90;;;2.50;;
15071;SDS011;7635;56.696;13.002;2022-12-07T06:06:47;3.23;;;2.10;;
15071;SDS011;7635;56.696;13.002;2022-12-07T06:09:14;2.13;;;1.90;;
15071;SDS011;7635;56.696;13.002;2022-12-07T06:11:43;3.00;;;2.10;;
15071;SDS011;7635;56.696;13.002;2022-12-07T06:14:26;2.97;;;2.30;;
15071;SDS011;7635;56.696;13.002;2022-12-07T06:16:54;2.60;;;2.03;;
15071;SDS011;7635;56.696;13.002;2022-12-07T06:19:21;3.07;;;2.17;;
15071;SDS011;7635;56.696;13.002;2022-12-07T06:21:48;3.00;;;2.10;;
15071;SDS011;7635;56.696;13.002;2022-12-07T06:24:14;2.13;;;1.83;;
15071;SDS011;7635;56.696;13.002;2022-12-07T06:26:42;2.27;;;2.00;;
15071;SDS011;7635;56.696;13.002;2022-12-07T06:29:09;4.17;;;2.13;;
15071;SDS011;7635;56.696;13.002;2022-12-07T06:31:37;2.37;;;1.97;;
15071;SDS011;7635;56.696;13.002;2022-12-07T06:34:05;2.57;;;2.30;;
15071;SDS011;7635;56.696;13.002;2022-12-07T06:36:34;2.77;;;2.37;;
15071;SDS011;7635;56.696;13.002;2022-12-07T06:39:02;2.63;;;2.30;;
15071;SDS011;7635;56.696;13.002;2022-12-07T06:41:29;2.50;;;2.20;;
15071;SDS011;7635;56.696;13.002;2022-12-07T06:43:56;2.43;;;2.07;;
15071;SDS011;7635;56.696;13.002;2022-12-07T06:46:22;3.23;;;2.47;;
15071;SDS011;7635;56.696;13.002;2022-12-07T06:48:50;3.13;;;2.07;;
15071;SDS011;7635;56.696;13.002;2022-12-07T06:51:18;3.03;;;2.30;;
15071;SDS011;7635;56.696;13.002;2022-12-07T06:53:45;2.67;;;2.20;;
15071;SDS011;7635;56.696;13.002;2022-12-07T06:56:12;2.20;;;1.97;;
15071;SDS011;7635;56.696;13.002;2022-12-07T06:58:39;1.90;;;1.80;;
15071;SDS011;7635;56.696;13.002;2022-12-07T07:01:08;2.33;;;2.10;;
15071;SDS011;7635;56.696;13.002;2022-12-07T07:03:35;2.50;;;2.17;;
15071;SDS011;7635;56.696;13.002;2022-12-07T07:06:02;2.40;;;2.20;;
15071;SDS011;7635;56.696;13.002;2022-12-07T07:08:30;2.57;;;2.20;;
15071;SDS011;7635;56.696;13.002;2022-12-07T07:10:57;2.47;;;1.60;;
15071;SDS011;7635;56.696;13.002;2022-12-07T07:13:24;2.30;;;1.97;;
15071;SDS011;7635;56.696;13.002;2022-12-07T07:15:50;2.10;;;1.83;;
15071;SDS011;7635;56.696;13.002;2022-12-07T07:18:17;2.60;;;1.90;;
15071;SDS011;7635;56.696;13.002;2022-12-07T07:20:44;2.57;;;2.20;;
15071;SDS011;7635;56.696;13.002;2022-12-07T07:23:11;2.27;;;2.00;;
15071;SDS011;7635;56.696;13.002;2022-12-07T07:25:39;1.93;;;1.80;;
15071;SDS011;7635;56.696;13.002;2022-12-07T07:28:05;2.67;;;1.80;;
15071;SDS011;7635;56.696;13.002;2022-12-07T07:30:32;2.13;;;1.77;;
15071;SDS011;7635;56.696;13.002;2022-12-07T07:32:59;2.20;;;1.90;;
15071;SDS011;7635;56.696;13.002;2022-12-07T07:35:27;2.43;;;2.07;;
15071;SDS011;7635;56.696;13.002;2022-12-07T07:37:55;1.70;;;1.60;;
15071;SDS011;7635;56.696;13.002;2022-12-07T07:40:22;2.53;;;2.23;;
15071;SDS011;7635;56.696;13.002;2022-12-07T07:42:51;2.00;;;1.83;;
15071;SDS011;7635;56.696;13.002;2022-12-07T07:45:19;2.90;;;2.00;;
15071;SDS011;7635;56.696;13.002;2022-12-07T07:47:48;1.80;;;1.70;;
15071;SDS011;7635;56.696;13.002;2022-12-07T07:50:15;2.07;;;1.90;;
15071;SDS011;7635;56.696;13.002;2022-12-07T07:52:42;1.97;;;1.80;;
15071;SDS011;7635;56.696;13.002;2022-12-07T07:55:10;1.83;;;1.73;;
15071;SDS011;7635;56.696;13.002;2022-12-07T07:57:37;5.60;;;1.93;;
15071;SDS011;7635;56.696;13.002;2022-12-07T08:00:07;1.83;;;1.70;;
15071;SDS011;7635;56.696;13.002;2022-12-07T08:02:35;2.23;;;1.90;;
15071;SDS011;7635;56.696;13.002;2022-12-07T08:05:02;2.03;;;1.87;;
15071;SDS011;7635;56.696;13.002;2022-12-07T08:07:29;2.27;;;1.93;;
15071;SDS011;7635;56.696;13.002;2022-12-07T08:09:55;2.07;;;1.70;;
15071;SDS011;7635;56.696;13.002;2022-12-07T08:12:22;2.40;;;1.57;;
15071;SDS011;7635;56.696;13.002;2022-12-07T08:14:49;1.63;;;1.53;;
15071;SDS011;7635;56.696;13.002;2022-12-07T08:17:17;2.43;;;1.70;;
15071;SDS011;7635;56.696;13.002;2022-12-07T08:19:43;4.23;;;1.50;;
15071;SDS011;7635;56.696;13.002;2022-12-07T08:22:10;1.80;;;1.60;;
15071;SDS011;7635;56.696;13.002;2022-12-07T08:24:37;2.87;;;1.80;;
15071;SDS011;7635;56.696;13.002;2022-12-07T08:27:03;1.70;;;1.60;;
15071;SDS011;7635;56.696;13.002;2022-12-07T08:29:30;3.50;;;1.47;;
15071;SDS011;7635;56.696;13.002;2022-12-07T08:31:57;1.97;;;1.77;;
15071;SDS011;7635;56.696;13.002;2022-12-07T08:34:27;2.27;;;1.93;;
15071;SDS011;7635;56.696;13.002;2022-12-07T08:36:53;1.80;;;1.33;;
15071;SDS011;7635;56.696;13.002;2022-12-07T08:39:20;1.90;;;1.57;;
15071;SDS011;7635;56.696;13.002;2022-12-07T08:41:47;1.80;;;1.70;;
15071;SDS011;7635;56.696;13.002;2022-12-07T08:44:13;1.70;;;1.40;;
15071;SDS011;7635;56.696;13.002;2022-12-07T08:46:40;1.70;;;1.60;;
15071;SDS011;7635;56.696;13.002;2022-12-07T08:49:12;2.20;;;1.63;;
15071;SDS011;7635;56.696;13.002;2022-12-07T08:51:42;1.53;;;1.37;;
15071;SDS011;7635;56.696;13.002;2022-12-07T08:54:10;2.10;;;1.50;;
15071;SDS011;7635;56.696;13.002;2022-12-07T08:56:39;2.00;;;1.80;;
15071;SDS011;7635;56.696;13.002;2022-12-07T08:59:07;4.00;;;1.70;;
15071;SDS011;7635;56.696;13.002;2022-12-07T09:01:34;1.20;;;1.17;;
15071;SDS011;7635;56.696;13.002;2022-12-07T09:04:00;1.50;;;1.23;;
15071;SDS011;7635;56.696;13.002;2022-12-07T09:06:27;1.63;;;1.10;;
15071;SDS011;7635;56.696;13.002;2022-12-07T09:08:56;1.37;;;1.27;;
15071;SDS011;7635;56.696;13.002;2022-12-07T09:11:24;1.30;;;1.20;;
15071;SDS011;7635;56.696;13.002;2022-12-07T09:13:51;1.57;;;1.47;;
15071;SDS011;7635;56.696;13.002;2022-12-07T09:16:18;1.37;;;1.27;;
15071;SDS011;7635;56.696;13.002;2022-12-07T09:18:45;1.87;;;1.77;;
15071;SDS011;7635;56.696;13.002;2022-12-07T09:21:11;1.23;;;1.13;;
15071;SDS011;7635;56.696;13.002;2022-12-07T09:23:38;1.47;;;1.27;;
15071;SDS011;7635;56.696;13.002;2022-12-07T09:26:06;1.33;;;1.30;;
15071;SDS011;7635;56.696;13.002;2022-12-07T09:28:33;1.40;;;1.30;;
15071;SDS011;7635;56.696;13.002;2022-12-07T09:30:59;1.20;;;1.10;;
15071;SDS011;7635;56.696;13.002;2022-12-07T09:33:26;1.30;;;1.20;;
15071;SDS011;7635;56.696;13.002;2022-12-07T09:35:53;1.30;;;1.20;;
15071;SDS011;7635;56.696;13.002;2022-12-07T09:38:20;1.43;;;1.33;;
15071;SDS011;7635;56.696;13.002;2022-12-07T09:40:47;1.40;;;1.17;;
15071;SDS011;7635;56.696;13.002;2022-12-07T09:43:16;2.87;;;1.17;;
15071;SDS011;7635;56.696;13.002;2022-12-07T09:45:46;1.40;;;1.30;;
15071;SDS011;7635;56.696;13.002;2022-12-07T09:48:16;2.73;;;1.50;;
15071;SDS011;7635;56.696;13.002;2022-12-07T09:50:45;1.30;;;1.20;;
15071;SDS011;7635;56.696;13.002;2022-12-07T09:53:13;1.40;;;1.30;;
15071;SDS011;7635;56.696;13.002;2022-12-07T09:55:45;2.63;;;1.30;;
15071;SDS011;7635;56.696;13.002;2022-12-07T09:58:12;1.17;;;1.07;;
15071;SDS011;7635;56.696;13.002;2022-12-07T10:00:48;1.37;;;1.27;;
15071;SDS011;7635;56.696;13.002;2022-12-07T10:03:15;1.20;;;1.20;;
15071;SDS011;7635;56.696;13.002;2022-12-07T10:05:42;3.20;;;1.30;;
15071;SDS011;7635;56.696;13.002;2022-12-07T10:08:12;2.77;;;1.40;;
15071;SDS011;7635;56.696;13.002;2022-12-07T10:10:40;1.33;;;1.20;;
15071;SDS011;7635;56.696;13.002;2022-12-07T10:13:08;2.53;;;1.27;;
15071;SDS011;7635;56.696;13.002;2022-12-07T10:15:48;1.27;;;1.10;;
15071;SDS011;7635;56.696;13.002;2022-12-07T10:18:18;0.90;;;0.90;;
15071;SDS011;7635;56.696;13.002;2022-12-07T10:20:47;1.00;;;1.00;;
15071;SDS011;7635;56.696;13.002;2022-12-07T10:23:15;1.43;;;1.10;;
15071;SDS011;7635;56.696;13.002;2022-12-07T10:25:43;1.80;;;1.17;;
15071;SDS011;7635;56.696;13.002;2022-12-07T10:28:11;1.20;;;1.20;;
15071;SDS011;7635;56.696;13.002;2022-12-07T10:30:49;1.07;;;1.00;;
15071;SDS011;7635;56.696;13.002;2022-12-07T10:33:27;1.37;;;1.00;;
15071;SDS011;7635;56.696;13.002;2022-12-07T10:35:55;0.83;;;0.83;;
15071;SDS011;7635;56.696;13.002;2022-12-07T10:38:23;1.30;;;1.00;;
15071;SDS011;7635;56.696;13.002;2022-12-07T10:41:02;1.80;;;1.23;;
15071;SDS011;7635;56.696;13.002;2022-12-07T10:43:30;1.10;;;1.00;;
15071;SDS011;7635;56.696;13.002;2022-12-07T10:49:31;1.27;;;1.17;;
15071;SDS011;7635;56.696;13.002;2022-12-07T10:52:29;1.37;;;1.03;;
15071;SDS011;7635;56.696;13.002;2022-12-07T10:55:13;2.17;;;1.37;;
15071;SDS011;7635;56.696;13.002;2022-12-07T10:57:47;1.13;;;1.00;;
15071;SDS011;7635;56.696;13.002;2022-12-07T11:00:28;1.30;;;1.20;;
15071;SDS011;7635;56.696;13.002;2022-12-07T11:03:21;3.50;;;1.37;;
15071;SDS011;7635;56.696;13.002;2022-12-07T11:05:57;1.23;;;1.10;;
15071;SDS011;7635;56.696;13.002;2022-12-07T11:08:36;2.23;;;1.37;;
15071;SDS011;7635;56.696;13.002;2022-12-07T11:11:13;1.50;;;1.40;;
15071;SDS011;7635;56.696;13.002;2022-12-07T11:13:46;1.37;;;1.27;;
15071;SDS011;7635;56.696;13.002;2022-12-07T11:16:23;1.40;;;1.30;;
15071;SDS011;7635;56.696;13.002;2022-12-07T11:19:14;1.40;;;0.90;;
15071;SDS011;7635;56.696;13.002;2022-12-07T11:21:58;1.07;;;0.97;;
15071;SDS011;7635;56.696;13.002;2022-12-07T11:24:31;1.43;;;1.20;;
15071;SDS011;7635;56.696;13.002;2022-12-07T11:27:10;2.13;;;1.07;;
15071;SDS011;7635;56.696;13.002;2022-12-07T11:29:51;1.53;;;1.13;;
15071;SDS011;7635;56.696;13.002;2022-12-07T11:32:32;0.90;;;0.90;;
15071;SDS011;7635;56.696;13.002;2022-12-07T11:35:15;0.83;;;0.83;;
15071;SDS011;7635;56.696;13.002;2022-12-07T11:37:48;0.87;;;0.80;;
15071;SDS011;7635;56.696;13.002;2022-12-07T11:40:19;0.60;;;0.60;;
15071;SDS011;7635;56.696;13.002;2022-12-07T11:42:49;0.80;;;0.80;;
15071;SDS011;7635;56.696;13.002;2022-12-07T11:45:23;0.77;;;0.77;;
15071;SDS011;7635;56.696;13.002;2022-12-07T11:47:54;1.00;;;0.97;;
15071;SDS011;7635;56.696;13.002;2022-12-07T11:50:27;0.70;;;0.67;;
15071;SDS011;7635;56.696;13.002;2022-12-07T11:52:59;0.90;;;0.90;;
15071;SDS011;7635;56.696;13.002;2022-12-07T11:55:30;1.00;;;0.90;;
15071;SDS011;7635;56.696;13.002;2022-12-07T11:58:10;1.17;;;1.03;;
15071;SDS011;7635;56.696;13.002;2022-12-07T12:01:04;0.77;;;0.77;;
15071;SDS011;7635;56.696;13.002;2022-12-07T12:03:38;1.63;;;0.90;;
15071;SDS011;7635;56.696;13.002;2022-12-07T12:06:11;1.87;;;1.17;;
15071;SDS011;7635;56.696;13.002;2022-12-07T12:08:38;1.37;;;1.23;;
15071;SDS011;7635;56.696;13.002;2022-12-07T12:11:09;0.90;;;0.90;;
15071;SDS011;7635;56.696;13.002;2022-12-07T12:13:57;1.10;;;1.00;;
15071;SDS011;7635;56.696;13.002;2022-12-07T12:16:41;0.57;;;0.57;;
15071;SDS011;7635;56.696;13.002;2022-12-07T12:19:23;1.37;;;1.00;;
15071;SDS011;7635;56.696;13.002;2022-12-07T12:22:02;1.17;;;1.00;;
15071;SDS011;7635;56.696;13.002;2022-12-07T12:24:35;0.97;;;0.97;;
15071;SDS011;7635;56.696;13.002;2022-12-07T12:27:06;0.93;;;0.93;;
15071;SDS011;7635;56.696;13.002;2022-12-07T12:29:37;0.90;;;0.90;;
15071;SDS011;7635;56.696;13.002;2022-12-07T12:32:07;1.13;;;1.03;;
15071;SDS011;7635;56.696;13.002;2022-12-07T12:34:41;1.53;;;1.13;;
15071;SDS011;7635;56.696;13.002;2022-12-07T12:37:41;1.20;;;1.03;;
15071;SDS011;7635;56.696;13.002;2022-12-07T12:58:44;5.30;;;1.93;;
15071;SDS011;7635;56.696;13.002;2022-12-07T13:10:34;1.40;;;1.00;;
15071;SDS011;7635;56.696;13.002;2022-12-07T13:25:31;1.50;;;1.30;;
15071;SDS011;7635;56.696;13.002;2022-12-07T13:28:08;1.70;;;1.17;;
15071;SDS011;7635;56.696;13.002;2022-12-07T13:30:43;0.80;;;0.80;;
15071;SDS011;7635;56.696;13.002;2022-12-07T13:33:13;1.40;;;1.30;;
15071;SDS011;7635;56.696;13.002;2022-12-07T13:35:43;1.63;;;1.20;;
15071;SDS011;7635;56.696;13.002;2022-12-07T13:38:19;1.40;;;1.30;;
15071;SDS011;7635;56.696;13.002;2022-12-07T13:41:04;1.20;;;1.10;;
15071;SDS011;7635;56.696;13.002;2022-12-07T13:43:42;1.80;;;1.03;;
15071;SDS011;7635;56.696;13.002;2022-12-07T13:46:11;0.90;;;0.90;;
15071;SDS011;7635;56.696;13.002;2022-12-07T13:48:43;1.13;;;1.03;;
15071;SDS011;7635;56.696;13.002;2022-12-07T13:51:20;2.47;;;1.43;;
15071;SDS011;7635;56.696;13.002;2022-12-07T13:53:51;2.40;;;1.40;;
15071;SDS011;7635;56.696;13.002;2022-12-07T13:56:21;1.73;;;1.20;;
15071;SDS011;7635;56.696;13.002;2022-12-07T13:58:52;1.73;;;1.23;;
15071;SDS011;7635;56.696;13.002;2022-12-07T14:01:19;1.00;;;1.00;;
15071;SDS011;7635;56.696;13.002;2022-12-07T14:03:47;4.60;;;1.90;;
15071;SDS011;7635;56.696;13.002;2022-12-07T14:06:19;2.27;;;1.30;;
15071;SDS011;7635;56.696;13.002;2022-12-07T14:09:16;1.57;;;1.30;;
15071;SDS011;7635;56.696;13.002;2022-12-07T14:11:45;1.50;;;1.40;;
15071;SDS011;7635;56.696;13.002;2022-12-07T14:14:15;1.60;;;1.20;;
15071;SDS011;7635;56.696;13.002;2022-12-07T14:16:54;2.50;;;1.50;;
15071;SDS011;7635;56.696;13.002;2022-12-07T14:19:41;2.13;;;1.40;;
15071;SDS011;7635;56.696;13.002;2022-12-07T14:22:17;1.20;;;1.10;;
15071;SDS011;7635;56.696;13.002;2022-12-07T14:24:57;1.90;;;1.20;;
15071;SDS011;7635;56.696;13.002;2022-12-07T14:27:30;2.40;;;1.30;;
15071;SDS011;7635;56.696;13.002;2022-12-07T14:29:59;1.33;;;1.07;;
15071;SDS011;7635;56.696;13.002;2022-12-07T14:32:27;2.57;;;1.40;;
15071;SDS011;7635;56.696;13.002;2022-12-07T14:34:56;1.20;;;1.10;;
15071;SDS011;7635;56.696;13.002;2022-12-07T14:37:25;1.07;;;1.00;;
15071;SDS011;7635;56.696;13.002;2022-12-07T14:39:54;1.30;;;1.20;;
15071;SDS011;7635;56.696;13.002;2022-12-07T14:42:21;1.73;;;0.77;;
15071;SDS011;7635;56.696;13.002;2022-12-07T14:44:52;1.20;;;1.03;;
15071;SDS011;7635;56.696;13.002;2022-12-07T14:47:19;1.70;;;1.10;;
15071;SDS011;7635;56.696;13.002;2022-12-07T14:49:46;1.00;;;0.90;;
15071;SDS011;7635;56.696;13.002;2022-12-07T14:52:15;1.07;;;0.93;;
15071;SDS011;7635;56.696;13.002;2022-12-07T14:54:46;1.57;;;1.20;;
15071;SDS011;7635;56.696;13.002;2022-12-07T14:57:15;1.07;;;1.03;;
15071;SDS011;7635;56.696;13.002;2022-12-07T14:59:42;2.03;;;1.10;;
15071;SDS011;7635;56.696;13.002;2022-12-07T15:02:09;1.20;;;1.00;;
15071;SDS011;7635;56.696;13.002;2022-12-07T15:04:38;1.23;;;1.13;;
15071;SDS011;7635;56.696;13.002;2022-12-07T15:07:06;1.20;;;1.07;;
15071;SDS011;7635;56.696;13.002;2022-12-07T15:09:39;0.90;;;0.90;;
15071;SDS011;7635;56.696;13.002;2022-12-07T15:12:06;2.63;;;1.30;;
15071;SDS011;7635;56.696;13.002;2022-12-07T15:14:34;1.47;;;1.10;;
15071;SDS011;7635;56.696;13.002;2022-12-07T15:17:01;1.30;;;1.20;;
15071;SDS011;7635;56.696;13.002;2022-12-07T15:19:28;1.17;;;1.07;;
15071;SDS011;7635;56.696;13.002;2022-12-07T15:21:55;1.27;;;1.17;;
15071;SDS011;7635;56.696;13.002;2022-12-07T15:24:23;1.03;;;0.90;;
15071;SDS011;7635;56.696;13.002;2022-12-07T15:26:50;2.43;;;1.60;;
15071;SDS011;7635;56.696;13.002;2022-12-07T15:29:17;1.10;;;1.00;;
15071;SDS011;7635;56.696;13.002;2022-12-07T15:31:45;1.93;;;0.93;;
15071;SDS011;7635;56.696;13.002;2022-12-07T15:34:13;2.63;;;1.17;;
15071;SDS011;7635;56.696;13.002;2022-12-07T15:36:40;0.73;;;0.73;;
15071;SDS011;7635;56.696;13.002;2022-12-07T15:39:07;1.20;;;1.10;;
15071;SDS011;7635;56.696;13.002;2022-12-07T15:41:34;0.67;;;0.67;;
15071;SDS011;7635;56.696;13.002;2022-12-07T15:44:01;1.37;;;1.27;;
15071;SDS011;7635;56.696;13.002;2022-12-07T15:46:47;0.70;;;0.70;;
15071;SDS011;7635;56.696;13.002;2022-12-07T15:49:15;1.27;;;0.93;;
15071;SDS011;7635;56.696;13.002;2022-12-07T15:51:43;1.13;;;0.80;;
15071;SDS011;7635;56.696;13.002;2022-12-07T15:54:12;1.23;;;1.23;;